Lindley, New York
Current Conditions -  °F | °C
As of 4:53 AM on Saturday 25 Oct 2014 (Local Time) from KELM Reporting Station
Broken Clouds Broken Clouds  
Wind Chill: 36°   Ceiling: 6000
Heat Index: 40°   Visibility: 10mi
Dew Point: 35°   Wind: 6mph
Humidity: 83%   Direction: 240°WSW
Pressure: 29.9"   Gusts: NA
Location:  42.03°N, 77.14°W
Report Text: KELM 250853Z AUTO 24005KT 10SM BKN060 04/02 A2990 RMK AO2 SLP127 T00440017 58004
Loading
Personal Weather Stations






























Interactive Weather Map
Tropical Storm Tracking
New forecast layout! Learn more

10-Day Weather Forecast

Advertisements
Track Severe Weather on mobile